TAF LFSI
AMD LFSI 271443Z 2714/2815 CNL=
METAR LFSI
LFSI 280800Z AUTO 30010KT 9999 BKN009 OVC013 04/03 Q0997=
LFSI 280730Z AUTO 31011KT 9999 OVC007 04/03 Q0997=
LFSI 280700Z AUTO 30008KT 9999 OVC004 03/03 Q0996=
LFSI 280630Z AUTO 23004KT 5000 BR OVC004/// ///TCU 03/02 Q0996=
LFSI 280600Z AUTO 23004KT 200V260 4400 -RA BR OVC003/// ///TCU 02/02 Q0996=
WC LFSI
WS LFSI
WV LFSI